Search for airport 
image banner adimage banner ad
image banner ad

DFOR - Kwame Nkhruma/Orodara

Located in , Burkina Faso

ICAO - DFOR, IATA -

Data provided by Airmate  

General information

Coordinates: N10°59'11" W4°55'29"
Elevation is 1706 feet MSL.
 
Rated:
View ratings: [VIEW]


View others Airports in Kenedougou

Operational data

Open for public use
Current time UTC:
Current local time:
Weather at : DFOO - Bobo-Dioulasso ( 69 km )
METAR: DFOO 122300Z 20006KT CAVOK 23/22 Q1015
TAF: TAF DFOO 121700Z 1218/1318 22010KT 9999 SCT016 TEMPO 1218/1304 4000 TS SHRA SCT016 SCT033CB
View NOTAMs / SUP AIP / TFR affecting this airport [VIEW]
Communications frequencies: [VIEW]

Runways:

Airport contact information

Address: Burkina Faso

Satellite view of DFOR